Time;durP1;ratioP1;P1;durP2;ratioP2;P2;SDS_P1;SDS_P2;PMS_P1;PMS_P2;Temp;Humidity;BMP_temperature;BMP_pressure;BME280_temperature;BME280_humidity;BME280_pressure;Samples;Min_cycle;Max_cycle;Signal;HPM_P1;HPM_P2
2023/09/05 00:00:06;;;;;;;1.90;1.23;;;19.20;91.60;;;;;;5071697;28;20099;-77
2023/09/05 00:02:32;;;;;;;2.05;1.30;;;19.20;91.70;;;;;;5071522;28;20074;-76
2023/09/05 00:04:58;;;;;;;1.77;1.10;;;19.20;91.60;;;;;;5071349;28;20496;-78
2023/09/05 00:07:24;;;;;;;1.45;1.10;;;19.20;91.70;;;;;;5071972;28;20305;-76
2023/09/05 00:09:49;;;;;;;1.67;1.20;;;19.20;91.60;;;;;;5071680;28;20032;-76
2023/09/05 00:12:15;;;;;;;2.00;1.25;;;19.20;91.70;;;;;;5071528;28;20127;-76
2023/09/05 00:14:41;;;;;;;1.65;1.10;;;19.20;91.70;;;;;;5071183;28;20024;-76
2023/09/05 00:17:06;;;;;;;1.52;1.10;;;19.30;91.60;;;;;;5070155;28;20017;-78
2023/09/05 00:19:32;;;;;;;1.60;1.20;;;19.30;91.60;;;;;;5071408;28;20090;-77
2023/09/05 00:21:58;;;;;;;1.42;1.08;;;19.30;91.60;;;;;;5071662;28;20037;-76
2023/09/05 00:24:36;;;;;;;1.85;1.30;;;19.30;91.50;;;;;;5071268;28;20021;-76
2023/09/05 00:27:04;;;;;;;1.80;1.25;;;19.30;91.60;;;;;;5071320;28;20025;-76
2023/09/05 00:29:30;;;;;;;1.70;1.25;;;19.30;91.60;;;;;;5072605;28;20126;-76
2023/09/05 00:31:59;;;;;;;2.35;1.15;;;19.20;91.50;;;;;;5073851;28;20116;-78
2023/09/05 00:34:26;;;;;;;1.27;1.13;;;19.20;91.60;;;;;;5073619;28;20065;-78
2023/09/05 00:36:52;;;;;;;1.58;1.20;;;19.20;91.60;;;;;;5073978;28;20031;-79
2023/09/05 00:39:19;;;;;;;1.88;1.20;;;19.30;91.60;;;;;;5073801;28;20029;-78
2023/09/05 00:41:45;;;;;;;1.92;1.17;;;19.20;91.60;;;;;;5074902;28;20103;-77
2023/09/05 00:44:13;;;;;;;1.55;1.20;;;19.20;91.70;;;;;;5073613;28;20517;-78
2023/09/05 00:46:42;;;;;;;1.63;1.10;;;19.20;91.70;;;;;;5074820;28;20485;-78
2023/09/05 00:49:08;;;;;;;1.90;1.20;;;19.20;91.70;;;;;;5073501;28;20055;-76
2023/09/05 00:51:34;;;;;;;1.90;1.10;;;19.20;91.70;;;;;;5074642;28;20096;-77
2023/09/05 00:54:02;;;;;;;1.60;1.15;;;19.20;91.70;;;;;;5073384;28;20127;-77
2023/09/05 00:56:27;;;;;;;1.52;1.00;;;19.20;91.70;;;;;;5074594;28;20032;-78
2023/09/05 00:58:53;;;;;;;1.85;1.20;;;19.20;91.80;;;;;;5073396;28;20032;-78
2023/09/05 01:01:18;;;;;;;1.80;1.17;;;19.20;91.80;;;;;;5074714;28;20032;-78
2023/09/05 01:03:44;;;;;;;2.20;1.20;;;19.20;91.70;;;;;;5074297;28;20025;-77
2023/09/05 01:06:19;;;;;;;1.60;1.10;;;19.20;91.80;;;;;;5073317;28;20488;-76
2023/09/05 01:08:55;;;;;;;1.73;1.20;;;19.20;91.80;;;;;;5074391;28;20127;-77
2023/09/05 01:11:21;;;;;;;1.88;1.13;;;19.20;91.80;;;;;;5074453;28;20103;-77
2023/09/05 01:13:47;;;;;;;1.77;1.10;;;19.20;91.70;;;;;;5074224;28;20078;-76
2023/09/05 01:16:12;;;;;;;1.40;1.10;;;19.20;91.70;;;;;;5074433;28;20028;-77
2023/09/05 01:18:40;;;;;;;1.75;1.23;;;19.30;91.70;;;;;;5074155;28;20060;-76
2023/09/05 01:21:35;;;;;;;2.03;1.30;;;19.30;91.60;;;;;;5073032;28;20473;-76
2023/09/05 01:24:17;;;;;;;1.42;1.00;;;19.20;91.60;;;;;;5074018;28;20024;-76
2023/09/05 01:26:43;;;;;;;1.75;1.20;;;19.30;91.60;;;;;;5073029;28;20037;-76
2023/09/05 01:29:15;;;;;;;1.40;1.10;;;19.30;91.60;;;;;;5074046;28;20456;-77
2023/09/05 01:31:41;;;;;;;1.30;0.98;;;19.20;91.60;;;;;;5074026;28;20073;-78
2023/09/05 01:34:07;;;;;;;1.75;1.17;;;19.20;91.60;;;;;;5073850;28;20070;-77
2023/09/05 01:36:32;;;;;;;2.17;1.38;;;19.20;91.70;;;;;;5073974;28;20029;-76
2023/09/05 01:38:58;;;;;;;2.20;1.35;;;19.20;91.70;;;;;;5073926;28;20071;-76
2023/09/05 01:41:23;;;;;;;1.70;1.10;;;19.20;91.70;;;;;;5071619;28;20035;-78
2023/09/05 01:43:49;;;;;;;1.50;1.10;;;19.20;91.70;;;;;;5073590;28;20231;-76
2023/09/05 01:46:15;;;;;;;1.38;1.10;;;19.20;91.80;;;;;;5073835;28;20029;-76
2023/09/05 01:48:40;;;;;;;1.30;1.02;;;19.20;91.80;;;;;;5073545;28;20036;-76
2023/09/05 01:51:06;;;;;;;1.35;1.10;;;19.20;91.80;;;;;;5072446;28;20028;-76
2023/09/05 01:53:31;;;;;;;1.55;1.02;;;19.20;91.80;;;;;;5073261;28;20027;-74
2023/09/05 01:55:57;;;;;;;1.33;1.00;;;19.20;91.80;;;;;;5072384;28;20517;-76
2023/09/05 01:58:23;;;;;;;2.13;1.30;;;19.20;91.80;;;;;;5073309;28;20023;-76
2023/09/05 02:00:49;;;;;;;1.83;1.17;;;19.10;91.80;;;;;;5073593;28;20020;-76
2023/09/05 02:03:15;;;;;;;2.10;1.30;;;19.20;91.80;;;;;;5072198;28;20393;-76
2023/09/05 02:05:40;;;;;;;1.58;1.10;;;19.20;91.80;;;;;;5071775;28;20178;-76
2023/09/05 02:08:06;;;;;;;1.40;1.02;;;19.20;91.80;;;;;;5071990;28;20051;-76
2023/09/05 02:10:31;;;;;;;1.60;1.20;;;19.20;91.80;;;;;;5073259;28;20024;-75
2023/09/05 02:12:57;;;;;;;1.65;1.20;;;19.20;91.80;;;;;;5073332;28;20020;-76
2023/09/05 02:15:22;;;;;;;1.73;1.25;;;19.20;91.80;;;;;;5071569;28;20024;-76
2023/09/05 02:17:48;;;;;;;1.88;1.10;;;19.20;91.70;;;;;;5073204;28;20099;-76
2023/09/05 02:20:14;;;;;;;1.88;1.23;;;19.20;91.70;;;;;;5072023;28;20059;-76
2023/09/05 02:22:44;;;;;;;1.80;1.05;;;19.10;91.60;;;;;;5072855;28;20031;-76
2023/09/05 02:25:11;;;;;;;1.73;1.30;;;19.20;91.60;;;;;;5072941;28;20025;-75
2023/09/05 02:27:37;;;;;;;1.52;1.13;;;19.20;91.70;;;;;;5071533;28;20046;-75
2023/09/05 02:30:04;;;;;;;1.60;1.10;;;19.20;91.70;;;;;;5073031;28;20546;-75
2023/09/05 02:32:30;;;;;;;1.88;1.00;;;19.20;91.60;;;;;;5072759;28;20044;-75
2023/09/05 02:34:56;;;;;;;1.52;1.00;;;19.20;91.70;;;;;;5071286;28;20059;-75
2023/09/05 02:37:22;;;;;;;1.65;1.10;;;19.20;91.70;;;;;;5072565;28;20103;-76
2023/09/05 02:39:47;;;;;;;2.00;1.30;;;19.20;91.70;;;;;;5071469;28;20060;-75
2023/09/05 02:42:13;;;;;;;2.05;1.20;;;19.20;91.70;;;;;;5071520;28;20404;-75
2023/09/05 02:44:38;;;;;;;1.65;1.10;;;19.20;91.80;;;;;;5072434;28;20029;-75
2023/09/05 02:47:04;;;;;;;2.28;1.20;;;19.10;91.80;;;;;;5072547;28;20559;-75
2023/09/05 02:49:31;;;;;;;1.58;1.05;;;19.20;91.80;;;;;;5069239;28;20024;-75
2023/09/05 02:51:57;;;;;;;1.13;1.00;;;19.10;91.80;;;;;;5070580;28;20020;-75
2023/09/05 02:54:22;;;;;;;2.53;1.30;;;19.20;91.80;;;;;;5072095;28;20073;-76
2023/09/05 02:56:48;;;;;;;1.38;1.08;;;19.10;91.80;;;;;;5071247;28;20548;-76
2023/09/05 02:59:14;;;;;;;1.48;1.10;;;19.10;91.80;;;;;;5072383;28;20031;-75
2023/09/05 03:01:39;;;;;;;1.48;1.10;;;19.20;91.90;;;;;;5072284;28;20500;-75
2023/09/05 03:04:05;;;;;;;1.42;1.10;;;19.10;91.80;;;;;;5071931;28;20052;-75
2023/09/05 03:06:30;;;;;;;1.65;1.23;;;19.20;91.90;;;;;;5070960;28;20024;-75
2023/09/05 03:08:56;;;;;;;1.38;1.20;;;19.10;91.80;;;;;;5071984;28;20027;-75
2023/09/05 03:11:21;;;;;;;1.70;1.20;;;19.10;91.80;;;;;;5072202;28;20020;-75
2023/09/05 03:13:47;;;;;;;2.30;1.42;;;19.20;91.80;;;;;;5070540;28;20111;-75
2023/09/05 03:16:14;;;;;;;1.60;1.10;;;19.20;91.80;;;;;;5070877;28;20024;-75
2023/09/05 03:18:39;;;;;;;1.80;1.20;;;19.20;91.80;;;;;;5072060;28;20029;-75
2023/09/05 03:21:05;;;;;;;1.38;1.00;;;19.20;91.70;;;;;;5072057;28;20137;-76
2023/09/05 03:23:30;;;;;;;1.67;1.20;;;19.20;91.70;;;;;;5070558;28;20070;-73
2023/09/05 03:25:56;;;;;;;1.40;1.10;;;19.20;91.70;;;;;;5070710;28;20031;-75
2023/09/05 03:28:22;;;;;;;1.42;1.13;;;19.20;91.70;;;;;;5071809;28;20440;-75
2023/09/05 03:30:48;;;;;;;2.20;1.33;;;19.20;91.70;;;;;;5070522;28;20494;-75
2023/09/05 03:33:14;;;;;;;1.63;1.15;;;19.20;91.70;;;;;;5071958;28;20032;-75
2023/09/05 03:35:42;;;;;;;2.45;1.45;;;19.20;91.70;;;;;;5070498;28;20028;-75
2023/09/05 03:38:07;;;;;;;2.03;1.10;;;19.20;91.70;;;;;;5070562;28;20075;-75
2023/09/05 03:40:34;;;;;;;1.38;1.00;;;19.10;91.80;;;;;;5070508;28;20477;-75
2023/09/05 03:42:59;;;;;;;1.60;1.10;;;19.20;91.80;;;;;;5070593;28;20112;-75
2023/09/05 03:45:27;;;;;;;1.70;1.20;;;19.10;91.80;;;;;;5071510;28;20059;-75
2023/09/05 03:47:53;;;;;;;1.77;1.10;;;19.10;91.80;;;;;;5071627;28;20032;-75
2023/09/05 03:50:19;;;;;;;1.42;1.02;;;19.10;91.80;;;;;;5071864;28;20016;-75
2023/09/05 03:52:45;;;;;;;1.88;1.27;;;19.10;91.80;;;;;;5070407;28;20027;-75
2023/09/05 03:55:10;;;;;;;1.80;1.30;;;19.10;91.80;;;;;;5071502;28;20033;-75
2023/09/05 03:57:36;;;;;;;1.45;1.08;;;19.10;91.90;;;;;;5070288;28;20489;-76
2023/09/05 04:00:01;;;;;;;2.00;1.30;;;19.10;91.90;;;;;;5071747;28;20108;-75
2023/09/05 04:02:27;;;;;;;1.30;1.00;;;19.10;91.90;;;;;;5070365;28;20493;-75
2023/09/05 04:04:55;;;;;;;2.10;1.40;;;19.10;91.90;;;;;;5072081;28;20499;-75
2023/09/05 04:07:21;;;;;;;1.63;1.17;;;19.10;91.90;;;;;;5075627;28;20044;-75
2023/09/05 04:09:47;;;;;;;1.55;1.17;;;19.10;91.90;;;;;;5074344;28;20066;-76
2023/09/05 04:12:14;;;;;;;1.70;1.10;;;19.10;91.80;;;;;;5075638;28;20017;-76
2023/09/05 04:14:39;;;;;;;1.27;1.08;;;19.20;91.90;;;;;;5075272;28;20028;-76
2023/09/05 04:17:05;;;;;;;2.00;1.30;;;19.10;91.80;;;;;;5075381;28;20021;-76
2023/09/05 04:19:30;;;;;;;1.58;1.20;;;19.20;91.80;;;;;;5074142;28;20032;-75
2023/09/05 04:21:56;;;;;;;1.88;1.30;;;19.20;91.80;;;;;;5074066;28;20035;-75
2023/09/05 04:24:21;;;;;;;1.38;1.10;;;19.20;91.70;;;;;;5074125;28;20036;-76
2023/09/05 04:26:47;;;;;;;2.22;1.30;;;19.20;91.70;;;;;;5075204;28;20371;-75
2023/09/05 04:29:13;;;;;;;1.75;1.13;;;19.20;91.70;;;;;;5075102;28;20032;-75
2023/09/05 04:31:38;;;;;;;1.48;1.20;;;19.20;91.70;;;;;;5075099;28;20029;-75
2023/09/05 04:34:04;;;;;;;1.17;1.00;;;19.20;91.70;;;;;;5073675;28;20021;-76
2023/09/05 04:36:29;;;;;;;2.13;1.27;;;19.10;91.70;;;;;;5075197;28;20020;-76
2023/09/05 04:38:55;;;;;;;1.35;1.00;;;19.10;91.80;;;;;;5075011;28;20036;-77
2023/09/05 04:41:20;;;;;;;1.83;1.30;;;19.10;91.80;;;;;;5075197;28;20025;-76
2023/09/05 04:43:47;;;;;;;1.30;1.10;;;19.10;91.80;;;;;;5074858;28;20484;-75
2023/09/05 04:46:13;;;;;;;1.42;1.17;;;19.10;91.80;;;;;;5074508;28;20039;-76
2023/09/05 04:48:38;;;;;;;1.27;1.10;;;19.10;91.90;;;;;;5072093;28;20028;-75
2023/09/05 04:51:04;;;;;;;2.05;1.35;;;19.10;91.90;;;;;;5065248;28;20029;-77
2023/09/05 04:53:30;;;;;;;1.60;1.20;;;19.10;91.90;;;;;;5073517;28;20013;-76
2023/09/05 04:56:00;;;;;;;2.22;1.25;;;19.10;91.90;;;;;;5074702;28;20091;-76
2023/09/05 04:58:27;;;;;;;1.88;1.20;;;19.10;91.90;;;;;;5074640;28;20023;-76
2023/09/05 05:00:56;;;;;;;1.80;1.38;;;19.10;91.90;;;;;;5074669;28;20036;-75
2023/09/05 05:03:23;;;;;;;1.70;1.27;;;19.10;91.90;;;;;;5072831;28;20036;-75
2023/09/05 05:05:49;;;;;;;1.80;1.13;;;19.10;91.90;;;;;;5071571;28;20028;-75
2023/09/05 05:08:15;;;;;;;1.88;1.33;;;19.10;91.90;;;;;;5074122;28;20063;-76
2023/09/05 05:10:40;;;;;;;2.05;1.25;;;19.10;91.90;;;;;;5073160;28;20056;-75
2023/09/05 05:13:06;;;;;;;1.83;1.20;;;19.10;91.80;;;;;;5074487;28;20025;-76
2023/09/05 05:15:31;;;;;;;2.13;1.30;;;19.10;91.80;;;;;;5074017;28;20362;-75
2023/09/05 05:17:57;;;;;;;1.88;1.20;;;19.20;91.80;;;;;;5074693;28;20022;-76
2023/09/05 05:20:23;;;;;;;2.00;1.30;;;19.20;91.80;;;;;;5074400;28;20099;-76
2023/09/05 05:22:48;;;;;;;2.53;1.40;;;19.20;91.70;;;;;;5073055;28;20028;-75
2023/09/05 05:25:14;;;;;;;2.08;1.30;;;19.20;91.70;;;;;;5073971;28;20021;-75
2023/09/05 05:27:39;;;;;;;2.55;1.20;;;19.20;91.60;;;;;;5072791;28;20440;-76
2023/09/05 05:30:05;;;;;;;1.55;1.10;;;19.20;91.60;;;;;;5072948;28;20070;-76
2023/09/05 05:32:31;;;;;;;2.42;1.40;;;19.20;91.60;;;;;;5074002;28;20025;-76
2023/09/05 05:34:56;;;;;;;1.75;1.20;;;19.20;91.60;;;;;;5073770;28;20047;-75
2023/09/05 05:37:22;;;;;;;1.65;1.15;;;19.20;91.60;;;;;;5073855;28;20020;-75
2023/09/05 05:39:47;;;;;;;1.50;1.10;;;19.20;91.60;;;;;;5073944;28;20477;-76
2023/09/05 05:42:13;;;;;;;1.77;1.30;;;19.20;91.60;;;;;;5072676;28;20075;-75
2023/09/05 05:44:39;;;;;;;1.77;1.20;;;19.20;91.60;;;;;;5073242;28;20031;-75
2023/09/05 05:47:05;;;;;;;1.70;1.25;;;19.20;91.50;;;;;;5073802;28;20016;-75
2023/09/05 05:49:31;;;;;;;1.48;1.13;;;19.30;91.50;;;;;;5072252;28;20535;-75
2023/09/05 05:51:59;;;;;;;1.80;1.20;;;19.20;91.50;;;;;;5072471;28;20020;-75
2023/09/05 05:54:25;;;;;;;1.80;1.38;;;19.30;91.50;;;;;;5072039;28;20056;-76
2023/09/05 05:56:52;;;;;;;2.03;1.10;;;19.20;91.50;;;;;;5072333;28;20393;-75
2023/09/05 05:59:17;;;;;;;1.92;1.30;;;19.30;91.50;;;;;;5073525;28;20121;-75
2023/09/05 06:01:43;;;;;;;1.42;1.10;;;19.30;91.40;;;;;;5072315;28;20477;-75
2023/09/05 06:04:08;;;;;;;1.52;1.20;;;19.30;91.40;;;;;;5073037;28;20031;-76
2023/09/05 06:06:36;;;;;;;2.45;1.30;;;19.30;91.40;;;;;;5072327;28;20035;-76
2023/09/05 06:09:01;;;;;;;2.13;1.20;;;19.30;91.30;;;;;;5072206;28;20101;-75
2023/09/05 06:11:27;;;;;;;1.70;1.15;;;19.40;91.40;;;;;;5073590;28;20465;-75
2023/09/05 06:13:52;;;;;;;1.50;1.23;;;19.40;91.30;;;;;;5071872;28;20016;-75
2023/09/05 06:16:19;;;;;;;1.52;1.10;;;19.40;91.20;;;;;;5073309;28;20013;-75
2023/09/05 06:18:44;;;;;;;2.22;1.20;;;19.40;91.10;;;;;;5071828;28;20484;-75
2023/09/05 06:21:10;;;;;;;1.42;1.02;;;19.50;91.10;;;;;;5073126;28;20040;-75
2023/09/05 06:23:35;;;;;;;1.27;1.10;;;19.50;91.00;;;;;;5071547;28;20029;-75
2023/09/05 06:26:01;;;;;;;2.90;1.40;;;19.50;90.90;;;;;;5071842;28;20450;-75
2023/09/05 06:28:27;;;;;;;1.58;1.20;;;19.50;90.90;;;;;;5070963;28;20396;-75
2023/09/05 06:30:57;;;;;;;1.30;1.20;;;19.50;90.90;;;;;;5071704;28;20077;-76
2023/09/05 06:33:23;;;;;;;2.33;1.00;;;19.60;90.90;;;;;;5071605;28;20021;-76
2023/09/05 06:35:49;;;;;;;1.45;1.13;;;19.60;90.90;;;;;;5071398;28;20027;-75
2023/09/05 06:38:14;;;;;;;1.98;1.30;;;19.60;90.80;;;;;;5072726;28;20020;-76
2023/09/05 06:40:40;;;;;;;2.05;1.30;;;19.60;90.90;;;;;;5071451;28;20029;-75
2023/09/05 06:43:06;;;;;;;1.75;1.20;;;19.60;90.90;;;;;;5072661;28;20405;-75
2023/09/05 06:45:31;;;;;;;1.65;1.13;;;19.60;90.80;;;;;;5070752;28;20059;-75
2023/09/05 06:47:57;;;;;;;1.98;1.30;;;19.60;90.80;;;;;;5072491;28;20020;-76
2023/09/05 06:50:24;;;;;;;1.90;1.20;;;19.60;90.80;;;;;;5072447;28;20035;-75
2023/09/05 06:52:49;;;;;;;1.25;1.08;;;19.60;90.80;;;;;;5072555;28;20013;-75
2023/09/05 06:55:15;;;;;;;1.67;1.30;;;19.70;90.80;;;;;;5072292;28;20392;-75
2023/09/05 06:57:40;;;;;;;2.10;1.35;;;19.70;90.70;;;;;;5072370;28;20485;-75
2023/09/05 07:00:07;;;;;;;2.05;1.20;;;19.70;90.70;;;;;;5072419;28;20532;-75
2023/09/05 07:02:33;;;;;;;1.80;1.30;;;19.70;90.70;;;;;;5070956;28;20021;-75
2023/09/05 07:04:58;;;;;;;1.98;1.30;;;19.70;90.70;;;;;;5072074;28;20032;-75
2023/09/05 07:07:25;;;;;;;1.77;1.20;;;19.70;90.60;;;;;;5070942;28;20017;-75
2023/09/05 07:09:51;;;;;;;1.92;1.20;;;19.80;90.60;;;;;;5072266;28;20389;-76
2023/09/05 07:12:16;;;;;;;2.40;1.58;;;19.80;90.60;;;;;;5072431;28;20031;-75
2023/09/05 07:14:45;;;;;;;2.53;1.58;;;19.90;90.60;;;;;;5071867;28;20064;-75
2023/09/05 07:17:11;;;;;;;2.03;1.30;;;19.90;90.50;;;;;;5070862;28;20027;-76
2023/09/05 07:19:37;;;;;;;1.63;1.30;;;19.90;90.40;;;;;;5071889;28;20485;-76
2023/09/05 07:22:03;;;;;;;2.22;1.50;;;20.00;90.40;;;;;;5072076;28;20108;-76
2023/09/05 07:24:29;;;;;;;3.33;1.58;;;20.00;90.30;;;;;;5070561;28;20512;-75
2023/09/05 07:26:54;;;;;;;2.75;1.80;;;20.00;90.20;;;;;;5072059;28;20029;-76
2023/09/05 07:29:20;;;;;;;1.90;1.50;;;20.00;90.10;;;;;;5071714;28;20024;-75
2023/09/05 07:31:46;;;;;;;2.28;1.50;;;20.00;90.10;;;;;;5071823;28;20082;-76
2023/09/05 07:34:12;;;;;;;2.55;1.60;;;20.10;90.10;;;;;;5070478;28;20044;-76
2023/09/05 07:36:39;;;;;;;3.47;1.73;;;20.10;90.00;;;;;;5072063;28;20066;-75
2023/09/05 07:39:05;;;;;;;2.90;1.67;;;20.10;90.10;;;;;;5069768;28;20028;-75
2023/09/05 07:41:31;;;;;;;2.67;1.63;;;20.10;90.00;;;;;;5071686;28;20027;-75
2023/09/05 07:43:57;;;;;;;2.63;1.60;;;20.10;90.10;;;;;;5071678;28;20024;-76
2023/09/05 07:46:23;;;;;;;3.00;1.80;;;20.10;90.00;;;;;;5071700;28;20032;-76
2023/09/05 07:48:48;;;;;;;2.30;1.70;;;20.10;90.00;;;;;;5070442;28;20025;-79
2023/09/05 07:51:14;;;;;;;2.25;1.70;;;20.10;90.00;;;;;;5071875;28;20409;-77
2023/09/05 07:53:49;;;;;;;2.78;1.73;;;20.20;90.30;;;;;;5071365;28;20371;-77
2023/09/05 07:56:14;;;;;;;2.42;1.70;;;20.20;90.00;;;;;;5071941;28;20052;-77
2023/09/05 07:58:41;;;;;;;2.92;1.83;;;20.20;90.00;;;;;;5071570;28;20127;-78
2023/09/05 08:01:09;;;;;;;2.05;1.50;;;20.20;90.00;;;;;;5070487;28;20401;-77
2023/09/05 08:03:35;;;;;;;2.65;1.65;;;20.20;90.00;;;;;;5071483;28;20021;-77
2023/09/05 08:06:01;;;;;;;2.63;1.70;;;20.20;90.00;;;;;;5071673;28;20081;-76
2023/09/05 08:08:26;;;;;;;2.90;1.70;;;20.30;90.00;;;;;;5071471;28;20028;-76
2023/09/05 08:10:52;;;;;;;3.17;1.60;;;20.30;90.00;;;;;;5071901;28;20541;-76
2023/09/05 08:13:17;;;;;;;2.65;1.58;;;20.30;89.90;;;;;;5071618;28;20027;-77
2023/09/05 08:15:44;;;;;;;2.38;1.55;;;20.30;89.80;;;;;;5071249;28;20025;-77
2023/09/05 08:18:13;;;;;;;2.97;1.85;;;20.30;89.60;;;;;;5071472;28;20469;-77
2023/09/05 08:20:42;;;;;;;1.95;1.33;;;20.40;89.60;;;;;;5070113;28;20480;-77
2023/09/05 08:23:08;;;;;;;3.13;1.77;;;20.40;89.40;;;;;;5071436;28;20020;-77
2023/09/05 08:25:34;;;;;;;2.25;1.58;;;20.50;89.40;;;;;;5070040;28;20070;-77
2023/09/05 08:28:00;;;;;;;2.63;1.73;;;20.50;89.30;;;;;;5071309;28;20021;-76
2023/09/05 08:30:27;;;;;;;2.17;1.67;;;20.50;89.20;;;;;;5071325;28;20455;-77
2023/09/05 08:33:01;;;;;;;2.30;1.50;;;20.50;89.20;;;;;;5070249;28;20031;-77
2023/09/05 08:35:27;;;;;;;2.38;1.60;;;20.50;89.20;;;;;;5071020;28;20107;-77
2023/09/05 08:37:52;;;;;;;2.97;1.80;;;20.50;89.20;;;;;;5071356;28;20063;-76
2023/09/05 08:40:19;;;;;;;2.58;1.67;;;20.50;89.30;;;;;;5071444;28;20039;-76
2023/09/05 08:42:47;;;;;;;2.17;1.50;;;20.50;89.30;;;;;;5071272;28;20020;-77
2023/09/05 08:45:19;;;;;;;2.15;1.50;;;20.50;89.30;;;;;;5069564;28;20496;-76
2023/09/05 08:47:44;;;;;;;2.22;1.50;;;20.60;89.30;;;;;;5069903;28;20032;-76
2023/09/05 08:50:10;;;;;;;2.20;1.58;;;20.60;89.30;;;;;;5071970;28;20028;-76
2023/09/05 08:52:39;;;;;;;2.58;1.73;;;20.60;89.20;;;;;;5073597;28;20049;-78
2023/09/05 08:55:06;;;;;;;2.28;1.60;;;20.60;89.20;;;;;;5074577;28;20108;-76
2023/09/05 08:57:35;;;;;;;2.53;1.60;;;20.60;89.20;;;;;;5073503;28;20044;-76
2023/09/05 09:00:09;;;;;;;2.60;1.63;;;20.70;89.20;;;;;;5074763;28;20021;-76
2023/09/05 09:02:35;;;;;;;1.88;1.38;;;20.60;89.20;;;;;;5074664;28;20028;-79
2023/09/05 09:05:01;;;;;;;2.30;1.60;;;20.60;89.10;;;;;;5074438;28;20024;-76
2023/09/05 09:07:27;;;;;;;3.28;1.58;;;20.60;89.20;;;;;;5073293;28;20028;-76
2023/09/05 09:09:54;;;;;;;2.20;1.48;;;20.60;89.30;;;;;;5074481;28;20021;-77
2023/09/05 09:12:51;;;;;;;2.92;1.70;;;20.60;89.30;;;;;;5073186;28;20485;-76
2023/09/05 09:15:16;;;;;;;2.65;1.20;;;20.70;89.30;;;;;;5072528;28;20127;-77
2023/09/05 09:17:45;;;;;;;5.75;1.92;;;20.70;89.10;;;;;;5074297;28;20060;-77
2023/09/05 09:20:12;;;;;;;3.60;2.03;;;20.70;87.80;;;;;;5074502;28;20029;-76
2023/09/05 09:22:39;;;;;;;3.92;1.90;;;20.70;87.90;;;;;;5074396;28;20028;-77
2023/09/05 09:25:23;;;;;;;4.40;1.80;;;20.70;87.90;;;;;;5074111;28;20070;-76
2023/09/05 09:27:55;;;;;;;5.75;1.73;;;20.70;87.90;;;;;;5074111;28;20038;-76
2023/09/05 09:30:23;;;;;;;5.40;1.67;;;20.70;88.00;;;;;;5072928;28;20389;-76
2023/09/05 09:32:53;;;;;;;4.95;2.17;;;20.70;88.20;;;;;;5073042;28;20518;-76
2023/09/05 09:35:19;;;;;;;3.05;1.63;;;20.70;88.30;;;;;;5073820;28;20028;-76
2023/09/05 09:37:46;;;;;;;4.30;1.85;;;20.70;88.40;;;;;;5073964;28;20024;-76
2023/09/05 09:40:16;;;;;;;5.55;1.83;;;20.70;88.60;;;;;;5074111;28;20052;-77
2023/09/05 09:42:46;;;;;;;3.72;1.60;;;20.70;88.70;;;;;;5073929;28;20027;-76
2023/09/05 09:45:11;;;;;;;4.25;1.88;;;20.70;88.70;;;;;;5073674;28;20032;-78
2023/09/05 09:47:45;;;;;;;4.10;1.60;;;20.70;88.80;;;;;;5074471;28;20035;-78
2023/09/05 09:50:12;;;;;;;4.30;1.73;;;20.70;88.80;;;;;;5074656;28;20024;-79
2023/09/05 09:52:49;;;;;;;4.00;1.88;;;20.80;88.80;;;;;;5073901;28;20052;-77
2023/09/05 09:55:17;;;;;;;2.97;1.70;;;20.80;88.80;;;;;;5073602;28;20031;-78
2023/09/05 09:57:49;;;;;;;3.47;2.00;;;20.80;88.80;;;;;;5072247;28;20435;-76
2023/09/05 10:00:18;;;;;;;3.45;1.90;;;20.80;88.90;;;;;;5073764;28;20059;-75
2023/09/05 10:02:46;;;;;;;3.67;1.70;;;20.80;88.90;;;;;;5071399;28;20025;-76
2023/09/05 10:05:15;;;;;;;3.30;1.63;;;20.80;88.90;;;;;;5071980;28;20090;-76
2023/09/05 10:07:41;;;;;;;3.40;1.90;;;20.80;88.80;;;;;;5072022;28;20043;-78
2023/09/05 10:10:09;;;;;;;3.67;1.75;;;20.90;88.70;;;;;;5073631;28;20119;-78
2023/09/05 10:12:36;;;;;;;3.42;1.80;;;20.90;88.60;;;;;;5072634;28;20437;-78
2023/09/05 10:15:03;;;;;;;5.35;2.15;;;20.90;88.50;;;;;;5073253;28;20078;-79
2023/09/05 10:17:31;;;;;;;3.53;1.70;;;20.90;88.50;;;;;;5072021;28;20520;-79
2023/09/05 10:19:57;;;;;;;3.35;1.80;;;20.90;88.50;;;;;;5072466;28;20066;-79
2023/09/05 10:22:24;;;;;;;2.65;1.70;;;20.90;88.50;;;;;;5072433;28;20035;-79
2023/09/05 10:24:50;;;;;;;2.40;1.58;;;21.00;88.60;;;;;;5072344;28;20054;-79
2023/09/05 10:27:16;;;;;;;4.35;1.90;;;20.90;88.60;;;;;;5072337;28;20021;-78
2023/09/05 10:29:42;;;;;;;3.88;1.88;;;21.00;88.90;;;;;;5072117;28;20405;-78
2023/09/05 10:32:09;;;;;;;2.80;1.50;;;20.90;88.90;;;;;;5072213;28;20032;-78
2023/09/05 10:34:47;;;;;;;2.72;1.70;;;20.90;89.00;;;;;;5073179;28;20025;-79
2023/09/05 10:37:18;;;;;;;3.30;1.77;;;20.90;89.10;;;;;;5072816;28;20027;-76
2023/09/05 10:39:44;;;;;;;2.97;1.75;;;20.90;89.10;;;;;;5072909;28;20032;-79
2023/09/05 10:42:11;;;;;;;3.53;1.75;;;20.90;89.30;;;;;;5072069;28;20028;-79
2023/09/05 10:44:41;;;;;;;4.13;1.70;;;20.90;89.20;;;;;;5072540;28;20055;-78
2023/09/05 10:47:28;;;;;;;2.88;1.60;;;20.90;89.20;;;;;;5072649;28;20111;-78
2023/09/05 10:50:05;;;;;;;2.72;1.67;;;20.90;89.30;;;;;;5072756;28;20028;-76
2023/09/05 10:52:31;;;;;;;3.17;1.73;;;20.80;89.20;;;;;;5071207;28;20055;-78
2023/09/05 10:54:58;;;;;;;2.15;1.50;;;20.80;89.30;;;;;;5072598;28;20024;-76
2023/09/05 10:57:34;;;;;;;3.28;1.75;;;20.80;89.30;;;;;;5072410;28;20032;-78
2023/09/05 11:00:06;;;;;;;3.30;1.67;;;20.90;89.40;;;;;;5071621;28;20389;-78
2023/09/05 11:02:33;;;;;;;2.72;1.83;;;20.90;89.40;;;;;;5072670;28;20025;-78
2023/09/05 11:05:00;;;;;;;3.70;1.80;;;20.90;89.40;;;;;;5071306;28;20036;-78
2023/09/05 11:07:31;;;;;;;2.67;1.70;;;20.90;89.30;;;;;;5070989;28;20024;-79
2023/09/05 11:09:56;;;;;;;3.20;1.67;;;20.90;89.30;;;;;;5072934;28;20447;-79
2023/09/05 11:12:24;;;;;;;3.25;1.50;;;20.90;89.20;;;;;;5072939;28;20025;-78
2023/09/05 11:14:53;;;;;;;3.13;1.90;;;20.90;89.20;;;;;;5072458;28;20100;-78
2023/09/05 11:17:18;;;;;;;3.13;1.70;;;20.90;89.20;;;;;;5072704;28;20397;-78
2023/09/05 11:19:50;;;;;;;2.80;1.60;;;20.90;89.30;;;;;;5072728;28;20028;-78
2023/09/05 11:22:21;;;;;;;2.80;1.67;;;20.80;89.30;;;;;;5072620;28;20031;-78
2023/09/05 11:24:51;;;;;;;2.90;1.60;;;20.80;89.60;;;;;;5070963;28;20029;-79
2023/09/05 11:27:25;;;;;;;2.88;1.60;;;20.80;89.60;;;;;;5072964;28;20039;-80
2023/09/05 11:29:55;;;;;;;2.40;1.50;;;20.80;89.60;;;;;;5070930;28;20025;-80
2023/09/05 11:32:31;;;;;;;3.45;1.52;;;20.80;89.70;;;;;;5072178;28;20362;-77
2023/09/05 11:34:57;;;;;;;3.17;1.77;;;20.80;89.80;;;;;;5070477;28;20028;-77
2023/09/05 11:37:23;;;;;;;3.30;1.70;;;20.80;89.80;;;;;;5071787;28;20038;-80
2023/09/05 11:39:50;;;;;;;2.40;1.60;;;20.80;89.90;;;;;;5073155;28;20029;-79
2023/09/05 11:42:24;;;;;;;3.17;1.70;;;20.70;89.90;;;;;;5073083;28;20024;-79
2023/09/05 11:44:52;;;;;;;2.80;1.67;;;20.70;89.90;;;;;;5072630;28;20025;-79
2023/09/05 11:47:18;;;;;;;2.95;1.75;;;20.70;89.90;;;;;;5072315;28;20050;-79
2023/09/05 11:49:46;;;;;;;2.35;1.50;;;20.70;90.00;;;;;;5072483;28;20081;-80
2023/09/05 11:52:13;;;;;;;3.50;1.83;;;20.70;90.00;;;;;;5071516;28;20113;-79
2023/09/05 11:54:39;;;;;;;3.22;1.67;;;20.70;89.90;;;;;;5071005;28;20115;-80
2023/09/05 11:57:07;;;;;;;2.50;1.50;;;20.70;90.00;;;;;;5072105;28;20020;-79
2023/09/05 11:59:33;;;;;;;2.47;1.58;;;20.70;90.00;;;;;;5072792;28;20025;-79
2023/09/05 12:02:07;;;;;;;2.42;1.52;;;20.70;89.90;;;;;;5072819;28;20119;-78
2023/09/05 12:04:36;;;;;;;2.67;1.50;;;20.80;89.90;;;;;;5071892;28;20028;-79
2023/09/05 12:07:06;;;;;;;2.25;1.40;;;20.80;89.80;;;;;;5071550;28;20067;-78
2023/09/05 12:09:32;;;;;;;3.08;1.60;;;20.80;89.70;;;;;;5071352;28;20513;-79
2023/09/05 12:12:14;;;;;;;3.22;1.70;;;20.80;89.70;;;;;;5071394;28;20219;-79
2023/09/05 12:14:53;;;;;;;3.05;1.40;;;20.80;89.70;;;;;;5071199;28;20024;-78
2023/09/05 12:17:21;;;;;;;2.30;1.55;;;20.80;89.70;;;;;;5071090;28;20077;-79
2023/09/05 12:19:48;;;;;;;1.98;1.40;;;20.80;89.80;;;;;;5072492;28;20532;-79
2023/09/05 12:22:21;;;;;;;2.75;1.60;;;20.70;89.80;;;;;;5073219;28;20366;-78
2023/09/05 12:24:47;;;;;;;2.55;1.52;;;20.70;89.90;;;;;;5071081;28;20029;-79
2023/09/05 12:27:26;;;;;;;2.20;1.48;;;20.70;90.00;;;;;;5074955;28;20024;-78
2023/09/05 12:29:55;;;;;;;2.92;1.60;;;20.70;90.00;;;;;;5075896;28;20020;-78
2023/09/05 12:32:26;;;;;;;2.08;1.35;;;20.70;90.00;;;;;;5076161;28;20024;-78
2023/09/05 12:34:52;;;;;;;3.05;1.70;;;20.70;90.10;;;;;;5075630;28;20020;-79
2023/09/05 12:37:18;;;;;;;3.28;1.70;;;20.70;90.10;;;;;;5076246;28;20078;-79
2023/09/05 12:39:43;;;;;;;2.65;1.40;;;20.70;90.10;;;;;;5074484;28;20030;-78
2023/09/05 12:42:09;;;;;;;3.38;1.70;;;20.60;90.10;;;;;;5074714;28;20057;-79
2023/09/05 12:44:35;;;;;;;3.17;1.70;;;20.60;90.10;;;;;;5074841;28;20059;-79
2023/09/05 12:47:00;;;;;;;2.72;1.70;;;20.60;90.20;;;;;;5075465;28;20427;-78